createdAt,value
2019-02-16T00:00:50.241Z,86.50
2019-02-16T00:03:18.915Z,86.20
2019-02-16T00:05:47.614Z,86.40
2019-02-16T00:08:16.345Z,86.90
2019-02-16T00:10:45.465Z,86.80
2019-02-16T00:13:14.625Z,86.90
2019-02-16T00:15:43.333Z,87.10
2019-02-16T00:18:12.012Z,87.20
2019-02-16T00:20:40.754Z,87.30
2019-02-16T00:23:09.730Z,87.30
2019-02-16T00:25:38.696Z,87.20
2019-02-16T00:28:07.594Z,87.00
2019-02-16T00:30:36.304Z,87.10
2019-02-16T00:33:05.058Z,87.30
2019-02-16T00:35:33.876Z,87.40
2019-02-16T00:38:02.587Z,87.90
2019-02-16T00:40:31.655Z,88.40
2019-02-16T00:43:00.488Z,88.70
2019-02-16T00:45:29.338Z,88.70
2019-02-16T00:47:57.998Z,88.50
2019-02-16T00:50:26.671Z,89.20
2019-02-16T00:52:55.394Z,89.20
2019-02-16T00:55:24.049Z,89.40
2019-02-16T00:57:52.930Z,89.50
2019-02-16T01:00:21.618Z,89.60
2019-02-16T01:02:51.278Z,90.00
2019-02-16T01:05:20.163Z,90.00
2019-02-16T01:07:49.182Z,90.00
2019-02-16T01:10:18.356Z,90.00
2019-02-16T01:12:47.028Z,90.00
2019-02-16T01:15:15.817Z,90.00
2019-02-16T01:17:44.753Z,90.00
2019-02-16T01:20:13.426Z,90.10
2019-02-16T01:22:42.131Z,90.00
2019-02-16T01:25:10.911Z,90.10
2019-02-16T01:27:39.786Z,90.20
2019-02-16T01:30:10.798Z,90.20
2019-02-16T01:32:39.716Z,90.30
2019-02-16T01:35:08.906Z,90.50
2019-02-16T01:37:37.790Z,90.60
2019-02-16T01:40:09.090Z,90.70
2019-02-16T01:42:37.755Z,90.80
2019-02-16T01:45:07.658Z,90.90
2019-02-16T01:47:36.345Z,90.90
2019-02-16T01:50:05.570Z,90.80
2019-02-16T01:52:34.258Z,90.80
2019-02-16T01:55:02.925Z,90.80
2019-02-16T01:57:31.902Z,90.80
2019-02-16T02:00:00.589Z,90.80
2019-02-16T02:02:29.487Z,90.90
2019-02-16T02:04:59.170Z,91.00
2019-02-16T02:07:28.316Z,91.30
2019-02-16T02:09:56.967Z,91.30
2019-02-16T02:12:28.994Z,91.20
2019-02-16T02:14:57.946Z,91.20
2019-02-16T02:17:26.696Z,91.30
2019-02-16T02:19:55.693Z,91.30
2019-02-16T02:22:26.799Z,91.40
2019-02-16T02:24:55.731Z,91.60
2019-02-16T02:27:24.817Z,91.70
2019-02-16T02:29:53.744Z,91.70
2019-02-16T02:32:22.415Z,91.70
2019-02-16T02:34:51.314Z,91.60
2019-02-16T02:37:20.110Z,91.60
2019-02-16T02:39:48.779Z,91.60
2019-02-16T02:42:17.435Z,91.60
2019-02-16T02:44:46.134Z,91.80
2019-02-16T02:47:15.091Z,92.00
2019-02-16T02:49:43.834Z,92.20
2019-02-16T02:52:12.628Z,92.10
2019-02-16T02:54:41.287Z,92.10
2019-02-16T02:57:09.946Z,92.00
2019-02-16T02:59:39.009Z,92.00
2019-02-16T03:02:07.788Z,92.00
2019-02-16T03:04:36.442Z,92.00
2019-02-16T03:07:06.155Z,92.00
2019-02-16T03:09:35.754Z,92.10
2019-02-16T03:12:04.669Z,92.10
2019-02-16T03:14:33.598Z,92.40
2019-02-16T03:17:02.343Z,92.50
2019-02-16T03:19:31.157Z,92.50
2019-02-16T03:22:02.674Z,92.50
2019-02-16T03:24:30.550Z,92.50
2019-02-16T03:27:55.735Z,92.60
2019-02-16T03:30:49.320Z,92.50
2019-02-16T03:33:37.555Z,92.70
2019-02-16T03:36:22.887Z,92.90
2019-02-16T03:39:11.264Z,93.00
2019-02-16T03:41:40.624Z,93.00
2019-02-16T03:44:09.398Z,92.90
2019-02-16T03:46:38.363Z,92.70
2019-02-16T03:49:07.067Z,92.60
2019-02-16T03:51:36.263Z,92.60
2019-02-16T03:54:05.700Z,92.60
2019-02-16T03:56:34.598Z,92.60
2019-02-16T03:59:03.342Z,92.90
2019-02-16T04:01:32.026Z,92.60
2019-02-16T04:04:00.767Z,92.40
2019-02-16T04:06:29.910Z,92.60
2019-02-16T04:08:58.890Z,92.30
2019-02-16T04:11:27.886Z,92.20
2019-02-16T04:13:56.568Z,92.20
2019-02-16T04:16:25.320Z,92.10
2019-02-16T04:18:54.320Z,91.90
2019-02-16T04:21:23.079Z,92.00
2019-02-16T04:23:51.834Z,92.00
2019-02-16T04:26:20.875Z,92.10
2019-02-16T04:28:49.802Z,92.10
2019-02-16T04:31:18.730Z,92.10
2019-02-16T04:33:47.651Z,92.20
2019-02-16T04:36:16.930Z,92.20
2019-02-16T04:38:45.737Z,92.30
2019-02-16T04:41:14.849Z,92.30
2019-02-16T04:43:43.748Z,92.30
2019-02-16T04:46:12.820Z,92.30
2019-02-16T04:48:41.510Z,92.40
2019-02-16T04:51:10.471Z,92.30
2019-02-16T04:53:39.194Z,92.40
2019-02-16T04:56:07.872Z,92.40
2019-02-16T04:58:36.611Z,92.50
2019-02-16T05:01:05.354Z,92.40
2019-02-16T05:03:34.258Z,92.40
2019-02-16T05:06:02.985Z,92.30
2019-02-16T05:08:32.004Z,92.40
2019-02-16T05:11:01.710Z,92.40
2019-02-16T05:13:30.619Z,92.40
2019-02-16T05:15:59.309Z,92.50
2019-02-16T05:18:28.015Z,92.50
2019-02-16T05:20:56.669Z,92.50
2019-02-16T05:23:25.597Z,92.50
2019-02-16T05:25:54.679Z,92.50
2019-02-16T05:28:23.630Z,92.50
2019-02-16T05:30:52.337Z,92.60
2019-02-16T05:33:22.012Z,92.40
2019-02-16T05:35:50.977Z,92.40
2019-02-16T05:38:20.236Z,92.40
2019-02-16T05:40:49.819Z,92.50
2019-02-16T05:43:18.875Z,92.50
2019-02-16T05:45:48.117Z,92.60
2019-02-16T05:48:16.850Z,92.60
2019-02-16T05:50:45.592Z,92.60
2019-02-16T05:53:14.630Z,92.60
2019-02-16T05:55:43.303Z,92.60
2019-02-16T05:58:12.233Z,92.70
2019-02-16T06:00:41.006Z,92.80
2019-02-16T06:03:09.676Z,92.90
2019-02-16T06:05:40.735Z,92.90
2019-02-16T06:08:08.876Z,92.90
2019-02-16T06:10:37.849Z,93.00
2019-02-16T06:13:07.422Z,93.00
2019-02-16T06:15:36.356Z,93.00
2019-02-16T06:18:05.019Z,93.00
2019-02-16T06:20:33.766Z,93.00
2019-02-16T06:23:04.625Z,93.00
2019-02-16T06:25:33.055Z,93.00
2019-02-16T06:28:01.734Z,93.00
2019-02-16T06:30:30.428Z,93.10
2019-02-16T06:32:59.611Z,93.10
2019-02-16T06:35:42.115Z,93.10
2019-02-16T06:38:10.798Z,93.00
2019-02-16T06:40:41.082Z,93.00
2019-02-16T06:43:09.966Z,93.00
2019-02-16T06:45:38.678Z,92.80
2019-02-16T06:48:07.598Z,91.80
2019-02-16T06:50:37.210Z,90.20
2019-02-16T06:53:13.003Z,87.10
2019-02-16T06:55:42.990Z,83.60
2019-02-16T06:58:12.171Z,80.60
2019-02-16T07:00:41.189Z,78.20
2019-02-16T07:03:10.523Z,76.20
2019-02-16T07:05:39.226Z,74.00
2019-02-16T07:08:07.889Z,70.70
2019-02-16T07:10:36.619Z,66.50
2019-02-16T07:13:05.313Z,61.80
2019-02-16T07:15:34.302Z,57.60
2019-02-16T07:18:09.777Z,55.10
2019-02-16T07:20:38.538Z,52.70
2019-02-16T07:23:07.221Z,50.10
2019-02-16T07:25:35.932Z,48.80
2019-02-16T07:28:04.798Z,46.40
2019-02-16T07:30:33.470Z,44.80
2019-02-16T07:33:02.212Z,42.70
2019-02-16T07:35:30.930Z,42.10
2019-02-16T07:38:00.099Z,41.40
2019-02-16T07:40:29.206Z,40.40
2019-02-16T07:42:58.658Z,39.00
2019-02-16T07:45:51.357Z,38.30
2019-02-16T07:48:25.015Z,37.70
2019-02-16T07:50:58.050Z,36.80
2019-02-16T07:53:55.068Z,36.20
2019-02-16T07:56:28.300Z,35.60
2019-02-16T07:59:16.108Z,36.10
2019-02-16T08:01:56.704Z,34.70
2019-02-16T08:04:53.533Z,34.30
2019-02-16T08:07:36.706Z,34.00
2019-02-16T08:10:28.074Z,33.60
2019-02-16T08:13:16.715Z,32.50
2019-02-16T08:16:03.203Z,32.20
2019-02-16T08:19:06.211Z,32.00
2019-02-16T08:21:52.562Z,31.90
2019-02-16T08:24:35.407Z,32.00
2019-02-16T08:27:37.388Z,31.70
2019-02-16T08:30:18.919Z,30.70
2019-02-16T08:33:09.707Z,31.10
2019-02-16T08:36:03.927Z,31.40
2019-02-16T08:38:47.996Z,31.00
2019-02-16T08:41:34.646Z,31.00
2019-02-16T08:44:34.481Z,30.50
2019-02-16T08:47:17.406Z,29.90
2019-02-16T08:50:08.829Z,29.70
2019-02-16T08:52:44.588Z,29.10
2019-02-16T08:55:41.281Z,29.20
2019-02-16T08:58:35.691Z,28.90
2019-02-16T09:01:23.594Z,28.90
2019-02-16T09:04:03.032Z,28.60
2019-02-16T09:06:39.002Z,28.30
2019-02-16T09:09:27.060Z,28.40
2019-02-16T09:12:06.053Z,27.90
2019-02-16T09:14:46.418Z,27.90
2019-02-16T09:17:33.032Z,27.90
2019-02-16T09:20:21.749Z,27.80
2019-02-16T09:23:17.675Z,27.50
2019-02-16T09:26:04.342Z,27.20
2019-02-16T09:28:44.231Z,27.40
2019-02-16T09:31:23.450Z,26.90
2019-02-16T09:34:16.403Z,27.00
2019-02-16T09:36:59.930Z,27.20
2019-02-16T09:39:44.403Z,27.00
2019-02-16T09:42:37.054Z,26.90
2019-02-16T09:45:20.542Z,26.80
2019-02-16T09:47:59.968Z,26.60
2019-02-16T09:50:47.995Z,26.50
2019-02-16T09:53:29.091Z,26.10
2019-02-16T09:56:15.554Z,26.30
2019-02-16T09:59:06.490Z,26.50
2019-02-16T10:01:47.963Z,26.10
2019-02-16T10:04:21.693Z,26.40
2019-02-16T10:07:03.634Z,26.10
2019-02-16T10:09:51.454Z,25.60
2019-02-16T10:12:38.279Z,25.10
2019-02-16T10:15:33.351Z,25.30
2019-02-16T10:18:20.242Z,25.80
2019-02-16T10:20:57.019Z,25.40
2019-02-16T10:23:37.995Z,25.40
2019-02-16T10:26:24.179Z,25.50
2019-02-16T10:29:09.027Z,24.80
2019-02-16T10:31:43.462Z,25.20
2019-02-16T10:34:37.583Z,25.40
2019-02-16T10:37:25.389Z,25.50
2019-02-16T10:40:15.955Z,25.90
2019-02-16T10:43:14.154Z,26.40
2019-02-16T10:46:09.734Z,26.50
2019-02-16T10:48:47.385Z,26.60
2019-02-16T10:51:35.545Z,26.70
2019-02-16T10:54:29.733Z,26.60
2019-02-16T10:57:06.175Z,26.90
2019-02-16T10:59:56.567Z,26.70
2019-02-16T11:02:42.815Z,27.00
2019-02-16T11:05:21.076Z,27.90
2019-02-16T11:08:03.788Z,29.90
2019-02-16T11:11:01.038Z,32.20
2019-02-16T11:13:45.151Z,33.70
2019-02-16T11:16:40.438Z,34.90
2019-02-16T11:22:13.971Z,37.00
2019-02-16T11:25:01.795Z,38.40
2019-02-16T11:27:59.730Z,38.10
2019-02-16T11:30:44.738Z,38.40
2019-02-16T11:33:31.147Z,39.00
2019-02-16T11:36:18.025Z,39.00
2019-02-16T11:38:52.142Z,39.20
2019-02-16T11:41:34.243Z,39.80
2019-02-16T11:44:21.133Z,39.80
2019-02-16T11:46:56.891Z,40.00
2019-02-16T11:49:31.712Z,40.50
2019-02-16T11:52:37.736Z,40.30
2019-02-16T11:55:26.106Z,39.90
2019-02-16T11:58:06.966Z,40.00
2019-02-16T12:01:03.968Z,40.10
2019-02-16T12:03:51.497Z,40.00
2019-02-16T12:06:25.404Z,40.30
2019-02-16T12:09:00.782Z,39.60
2019-02-16T12:11:47.698Z,38.60
2019-02-16T12:14:30.618Z,39.50
2019-02-16T12:17:16.185Z,37.50
2019-02-16T12:20:02.435Z,36.50
2019-02-16T12:22:38.583Z,36.80
2019-02-16T12:25:25.381Z,37.60
2019-02-16T12:28:05.947Z,37.00
2019-02-16T12:31:08.936Z,36.60
2019-02-16T12:34:03.040Z,36.50
2019-02-16T12:36:49.575Z,37.30
2019-02-16T12:39:25.394Z,36.50
2019-02-16T12:42:12.210Z,36.90
2019-02-16T12:45:01.792Z,36.80
2019-02-16T12:47:48.295Z,36.40
2019-02-16T12:50:24.336Z,36.70
2019-02-16T12:53:30.490Z,36.00
2019-02-16T12:56:07.084Z,36.10
2019-02-16T12:58:46.912Z,36.00
2019-02-16T13:01:33.618Z,36.70
2019-02-16T13:04:14.350Z,35.00
2019-02-16T13:06:57.388Z,35.10
2019-02-16T13:09:44.313Z,35.40
2019-02-16T13:12:25.189Z,35.20
2019-02-16T13:15:16.642Z,35.30
2019-02-16T13:17:56.999Z,34.80
2019-02-16T13:20:54.024Z,34.30
2019-02-16T13:23:30.336Z,33.50
2019-02-16T13:26:05.506Z,33.60
2019-02-16T13:28:59.422Z,33.40
2019-02-16T13:31:34.171Z,33.60
2019-02-16T13:34:25.405Z,33.40
2019-02-16T13:37:10.707Z,33.50
2019-02-16T13:39:49.507Z,33.20
2019-02-16T13:42:23.462Z,33.70
2019-02-16T13:45:08.173Z,33.30
2019-02-16T13:47:50.402Z,33.50
2019-02-16T13:50:24.306Z,33.50
2019-02-16T13:52:59.413Z,33.40
2019-02-16T13:55:36.272Z,33.80
2019-02-16T13:58:14.634Z,33.60
2019-02-16T14:00:51.963Z,33.20
2019-02-16T14:03:26.973Z,33.20
2019-02-16T14:06:01.864Z,33.20
2019-02-16T14:08:42.994Z,33.40
2019-02-16T14:11:24.158Z,33.20
2019-02-16T14:14:10.577Z,33.20
2019-02-16T14:16:57.086Z,33.20
2019-02-16T14:19:26.049Z,33.80
2019-02-16T14:21:55.275Z,33.80
2019-02-16T14:24:42.292Z,33.50
2019-02-16T14:27:11.346Z,33.30
2019-02-16T14:29:40.288Z,34.20
2019-02-16T14:32:13.743Z,35.60
2019-02-16T14:34:42.723Z,36.80
2019-02-16T14:37:26.322Z,37.40
2019-02-16T14:39:55.047Z,38.00
2019-02-16T14:42:23.767Z,38.10
2019-02-16T14:44:52.731Z,38.20
2019-02-16T14:47:22.819Z,38.30
2019-02-16T14:49:51.483Z,38.10
2019-02-16T14:52:20.595Z,38.60
2019-02-16T14:54:49.772Z,38.40
2019-02-16T14:57:18.807Z,38.60
2019-02-16T14:59:47.787Z,38.80
2019-02-16T15:02:18.284Z,39.10
2019-02-16T15:04:46.933Z,39.30
2019-02-16T15:07:15.939Z,40.00
2019-02-16T15:09:44.675Z,40.40
2019-02-16T15:12:14.311Z,40.30
2019-02-16T15:14:43.346Z,40.70
2019-02-16T15:17:12.476Z,40.70
2019-02-16T15:19:41.419Z,41.00
2019-02-16T15:22:13.066Z,40.80
2019-02-16T15:24:41.771Z,41.10
2019-02-16T15:27:12.034Z,41.60
2019-02-16T15:29:41.287Z,41.80
2019-02-16T15:32:14.159Z,41.70
2019-02-16T15:34:43.086Z,42.00
2019-02-16T15:37:12.558Z,42.30
2019-02-16T15:39:41.237Z,42.70
2019-02-16T15:42:09.898Z,43.00
2019-02-16T15:44:39.329Z,43.20
2019-02-16T15:47:08.298Z,43.10
2019-02-16T15:49:37.046Z,43.70
2019-02-16T15:52:05.730Z,44.10
2019-02-16T15:54:34.417Z,44.10
2019-02-16T15:57:03.085Z,44.40
2019-02-16T15:59:35.238Z,44.30
2019-02-16T16:02:02.681Z,44.80
2019-02-16T16:04:31.379Z,44.90
2019-02-16T16:07:00.696Z,45.00
2019-02-16T16:09:47.302Z,45.40
2019-02-16T16:12:25.459Z,45.80
2019-02-16T16:15:23.653Z,46.40
2019-02-16T16:18:03.530Z,46.50
2019-02-16T16:20:50.782Z,47.30
2019-02-16T16:23:37.214Z,47.70
2019-02-16T16:26:19.393Z,47.90
2019-02-16T16:29:00.811Z,48.50
2019-02-16T16:31:40.674Z,49.10
2019-02-16T16:34:33.395Z,49.30
2019-02-16T16:37:18.163Z,49.90
2019-02-16T16:40:12.728Z,50.40
2019-02-16T16:42:54.930Z,51.30
2019-02-16T16:45:40.478Z,51.50
2019-02-16T16:48:22.414Z,52.10
2019-02-16T16:51:00.598Z,52.10
2019-02-16T16:53:36.064Z,52.50
2019-02-16T16:56:28.419Z,52.60
2019-02-16T16:59:02.383Z,52.90
2019-02-16T17:01:42.979Z,53.40
2019-02-16T17:04:37.009Z,53.30
2019-02-16T17:07:24.910Z,53.60
2019-02-16T17:10:10.610Z,53.60
2019-02-16T17:12:47.841Z,54.00
2019-02-16T17:15:41.652Z,54.30
2019-02-16T17:18:28.155Z,54.60
2019-02-16T17:21:17.175Z,54.90
2019-02-16T17:23:55.773Z,54.50
2019-02-16T17:26:42.009Z,54.60
2019-02-16T17:29:19.786Z,54.90
2019-02-16T17:32:06.041Z,55.40
2019-02-16T17:34:52.869Z,55.20
2019-02-16T17:37:30.592Z,55.20
2019-02-16T17:40:08.027Z,55.30
2019-02-16T17:42:58.920Z,55.30
2019-02-16T17:45:49.486Z,55.50
2019-02-16T17:48:36.040Z,55.70
2019-02-16T17:51:17.290Z,56.00
2019-02-16T17:54:17.363Z,56.00
2019-02-16T17:57:11.672Z,56.30
2019-02-16T17:59:45.566Z,56.10
2019-02-16T18:02:24.954Z,56.30
2019-02-16T18:05:21.903Z,56.50
2019-02-16T18:08:01.591Z,56.70
2019-02-16T18:10:51.811Z,57.00
2019-02-16T18:13:39.617Z,57.70
2019-02-16T18:16:15.567Z,57.60
2019-02-16T18:18:56.474Z,58.10
2019-02-16T18:21:46.436Z,58.40
2019-02-16T18:24:37.290Z,58.40
2019-02-16T18:27:13.521Z,59.10
2019-02-16T18:30:04.736Z,59.30
2019-02-16T18:32:51.073Z,59.40
2019-02-16T18:35:48.199Z,59.70
2019-02-16T18:38:34.768Z,60.00
2019-02-16T18:41:22.076Z,60.30
2019-02-16T18:44:08.828Z,60.90
2019-02-16T18:46:44.616Z,61.10
2019-02-16T18:49:31.068Z,61.70
2019-02-16T18:52:09.874Z,62.20
2019-02-16T18:54:56.793Z,62.50
2019-02-16T18:57:35.538Z,62.80
2019-02-16T19:00:10.955Z,62.90
2019-02-16T19:02:56.357Z,63.00
2019-02-16T19:05:37.593Z,63.20
2019-02-16T19:08:20.590Z,63.60
2019-02-16T19:11:14.891Z,64.10
2019-02-16T19:13:57.530Z,64.70
2019-02-16T19:16:45.789Z,64.80
2019-02-16T19:19:25.708Z,64.50
2019-02-16T19:22:12.242Z,64.60
2019-02-16T19:24:47.667Z,64.50
2019-02-16T19:27:47.462Z,64.50
2019-02-16T19:30:33.055Z,64.70
2019-02-16T19:33:11.212Z,65.30
2019-02-16T19:36:00.171Z,65.50
2019-02-16T19:38:54.222Z,65.90
2019-02-16T19:41:33.796Z,66.40
2019-02-16T19:44:14.472Z,67.00
2019-02-16T19:46:51.185Z,66.80
2019-02-16T19:49:56.994Z,66.80
2019-02-16T19:52:48.026Z,66.90
2019-02-16T19:55:30.345Z,67.00
2019-02-16T19:58:16.791Z,67.40
2019-02-16T20:00:58.973Z,67.60
2019-02-16T20:03:49.378Z,67.60
2019-02-16T20:06:23.542Z,67.60
2019-02-16T20:08:57.514Z,67.30
2019-02-16T20:11:48.573Z,67.60
2019-02-16T20:14:38.019Z,67.70
2019-02-16T20:17:24.209Z,67.40
2019-02-16T20:20:10.823Z,67.10
2019-02-16T20:23:08.018Z,67.10
2019-02-16T20:25:51.523Z,67.30
2019-02-16T20:28:28.095Z,67.50
2019-02-16T20:31:03.386Z,67.60
2019-02-16T20:33:50.080Z,67.90
2019-02-16T20:36:41.914Z,68.30
2019-02-16T20:39:24.515Z,68.50
2019-02-16T20:42:12.744Z,68.40
2019-02-16T20:45:00.561Z,68.30
2019-02-16T20:47:50.647Z,68.10
2019-02-16T20:50:50.602Z,68.10
2019-02-16T20:53:28.710Z,68.10
2019-02-16T20:56:16.402Z,68.70
2019-02-16T20:59:16.887Z,68.70
2019-02-16T21:02:05.128Z,68.90
2019-02-16T21:04:54.745Z,69.50
2019-02-16T21:07:42.171Z,70.40
2019-02-16T21:10:20.344Z,70.30
2019-02-16T21:12:54.637Z,70.40
2019-02-16T21:15:31.422Z,70.30
2019-02-16T21:18:15.522Z,70.80
2019-02-16T21:21:01.225Z,70.60
2019-02-16T21:23:38.482Z,70.70
2019-02-16T21:26:24.728Z,70.80
2019-02-16T21:29:12.829Z,71.60
2019-02-16T21:31:55.818Z,71.70
2019-02-16T21:34:59.435Z,71.90
2019-02-16T21:37:36.155Z,72.30
2019-02-16T21:40:14.587Z,73.20
2019-02-16T21:42:54.682Z,73.20
2019-02-16T21:45:35.819Z,73.80
2019-02-16T21:48:31.537Z,74.00
2019-02-16T21:51:18.393Z,74.10
2019-02-16T21:53:55.503Z,75.00
2019-02-16T21:56:42.091Z,75.30
2019-02-16T21:59:35.308Z,75.30
2019-02-16T22:02:13.774Z,75.70
2019-02-16T22:05:21.409Z,75.70
2019-02-16T22:08:07.706Z,75.90
2019-02-16T22:10:44.015Z,76.40
2019-02-16T22:13:12.675Z,76.90
2019-02-16T22:15:41.342Z,77.20
2019-02-16T22:18:10.037Z,77.50
2019-02-16T22:20:38.723Z,77.50
2019-02-16T22:23:08.510Z,77.90
2019-02-16T22:25:37.263Z,78.00
2019-02-16T22:28:06.164Z,78.00
2019-02-16T22:30:35.429Z,78.50
2019-02-16T22:33:04.580Z,78.80
2019-02-16T22:35:34.118Z,78.80
2019-02-16T22:38:02.866Z,79.00
2019-02-16T22:40:31.791Z,79.00
2019-02-16T22:43:00.960Z,79.50
2019-02-16T22:45:29.683Z,79.90
2019-02-16T22:47:58.440Z,80.20
2019-02-16T22:50:27.185Z,80.30
2019-02-16T22:52:56.074Z,80.70
2019-02-16T22:55:24.750Z,80.50
2019-02-16T22:57:53.473Z,80.50
2019-02-16T23:00:40.175Z,80.70
2019-02-16T23:03:08.931Z,80.70
2019-02-16T23:05:38.918Z,80.80
2019-02-16T23:08:08.754Z,80.90
2019-02-16T23:10:37.702Z,81.20
2019-02-16T23:13:07.359Z,81.20
2019-02-16T23:15:36.135Z,81.60
2019-02-16T23:18:05.315Z,81.60
2019-02-16T23:20:34.328Z,81.30
2019-02-16T23:23:04.910Z,81.30
2019-02-16T23:25:33.650Z,81.70
2019-02-16T23:28:02.347Z,81.50
2019-02-16T23:30:31.337Z,81.70
2019-02-16T23:33:00.363Z,81.50
2019-02-16T23:35:29.065Z,81.80
2019-02-16T23:37:58.082Z,82.00
2019-02-16T23:40:27.270Z,82.20
2019-02-16T23:42:56.207Z,82.40
2019-02-16T23:45:24.958Z,82.70
2019-02-16T23:47:53.692Z,82.70
2019-02-16T23:50:22.379Z,82.90
2019-02-16T23:52:51.378Z,83.50
2019-02-16T23:55:20.339Z,83.30
2019-02-16T23:57:49.022Z,83.60
